sensor_id;sensor_type;location;lat;lon;timestamp;P1;durP1;ratioP1;P2;durP2;ratioP2
4636;SDS011;2331;48.806;9.140;2024-01-30T00:01:51;6.22;;;3.95;;
4636;SDS011;2331;48.806;9.140;2024-01-30T00:04:18;6.85;;;4.10;;
4636;SDS011;2331;48.806;9.140;2024-01-30T00:06:46;8.35;;;4.50;;
4636;SDS011;2331;48.806;9.140;2024-01-30T00:09:12;9.85;;;4.30;;
4636;SDS011;2331;48.806;9.140;2024-01-30T00:11:40;6.03;;;3.88;;
4636;SDS011;2331;48.806;9.140;2024-01-30T00:14:06;7.13;;;4.40;;
4636;SDS011;2331;48.806;9.140;2024-01-30T00:16:33;5.63;;;4.10;;
4636;SDS011;2331;48.806;9.140;2024-01-30T00:19:00;9.88;;;4.45;;
4636;SDS011;2331;48.806;9.140;2024-01-30T00:21:27;7.85;;;4.43;;
4636;SDS011;2331;48.806;9.140;2024-01-30T00:23:55;7.60;;;4.65;;
4636;SDS011;2331;48.806;9.140;2024-01-30T00:26:22;11.23;;;5.18;;
4636;SDS011;2331;48.806;9.140;2024-01-30T00:28:49;6.97;;;4.50;;
4636;SDS011;2331;48.806;9.140;2024-01-30T00:31:16;6.30;;;3.92;;
4636;SDS011;2331;48.806;9.140;2024-01-30T00:33:42;5.30;;;4.18;;
4636;SDS011;2331;48.806;9.140;2024-01-30T00:36:09;7.03;;;3.92;;
4636;SDS011;2331;48.806;9.140;2024-01-30T00:38:36;6.72;;;4.50;;
4636;SDS011;2331;48.806;9.140;2024-01-30T00:41:05;10.77;;;4.70;;
4636;SDS011;2331;48.806;9.140;2024-01-30T00:43:31;7.57;;;4.43;;
4636;SDS011;2331;48.806;9.140;2024-01-30T00:45:58;7.93;;;5.07;;
4636;SDS011;2331;48.806;9.140;2024-01-30T00:48:25;21.10;;;5.88;;
4636;SDS011;2331;48.806;9.140;2024-01-30T00:50:51;7.57;;;4.80;;
4636;SDS011;2331;48.806;9.140;2024-01-30T00:53:18;9.25;;;5.18;;
4636;SDS011;2331;48.806;9.140;2024-01-30T00:55:45;7.30;;;4.50;;
4636;SDS011;2331;48.806;9.140;2024-01-30T00:58:13;8.23;;;4.05;;
4636;SDS011;2331;48.806;9.140;2024-01-30T01:00:40;12.35;;;4.55;;
4636;SDS011;2331;48.806;9.140;2024-01-30T01:03:06;6.53;;;4.43;;
4636;SDS011;2331;48.806;9.140;2024-01-30T01:05:33;8.32;;;4.82;;
4636;SDS011;2331;48.806;9.140;2024-01-30T01:08:00;7.97;;;4.18;;
4636;SDS011;2331;48.806;9.140;2024-01-30T01:10:27;5.55;;;4.30;;
4636;SDS011;2331;48.806;9.140;2024-01-30T01:12:54;6.55;;;4.60;;
4636;SDS011;2331;48.806;9.140;2024-01-30T01:15:22;6.70;;;4.35;;
4636;SDS011;2331;48.806;9.140;2024-01-30T01:17:48;6.85;;;4.30;;
4636;SDS011;2331;48.806;9.140;2024-01-30T01:20:15;6.85;;;4.30;;
4636;SDS011;2331;48.806;9.140;2024-01-30T01:22:42;6.22;;;4.85;;
4636;SDS011;2331;48.806;9.140;2024-01-30T01:25:08;6.90;;;4.63;;
4636;SDS011;2331;48.806;9.140;2024-01-30T01:27:35;7.57;;;4.30;;
4636;SDS011;2331;48.806;9.140;2024-01-30T01:30:06;8.38;;;5.10;;
4636;SDS011;2331;48.806;9.140;2024-01-30T01:32:36;6.75;;;4.18;;
4636;SDS011;2331;48.806;9.140;2024-01-30T01:35:03;5.93;;;3.78;;
4636;SDS011;2331;48.806;9.140;2024-01-30T01:37:31;7.35;;;4.97;;
4636;SDS011;2331;48.806;9.140;2024-01-30T01:39:58;6.63;;;4.30;;
4636;SDS011;2331;48.806;9.140;2024-01-30T01:42:26;6.32;;;4.10;;
4636;SDS011;2331;48.806;9.140;2024-01-30T01:44:52;7.75;;;5.10;;
4636;SDS011;2331;48.806;9.140;2024-01-30T01:47:19;7.97;;;4.90;;
4636;SDS011;2331;48.806;9.140;2024-01-30T01:49:48;7.35;;;4.55;;
4636;SDS011;2331;48.806;9.140;2024-01-30T01:52:15;8.85;;;4.40;;
4636;SDS011;2331;48.806;9.140;2024-01-30T01:54:43;6.05;;;4.40;;
4636;SDS011;2331;48.806;9.140;2024-01-30T01:57:09;6.45;;;4.53;;
4636;SDS011;2331;48.806;9.140;2024-01-30T01:59:36;9.70;;;4.78;;
4636;SDS011;2331;48.806;9.140;2024-01-30T02:02:03;9.40;;;4.95;;
4636;SDS011;2331;48.806;9.140;2024-01-30T02:04:32;6.68;;;4.80;;
4636;SDS011;2331;48.806;9.140;2024-01-30T02:07:00;10.38;;;4.38;;
4636;SDS011;2331;48.806;9.140;2024-01-30T02:09:27;5.78;;;3.72;;
4636;SDS011;2331;48.806;9.140;2024-01-30T02:11:54;6.35;;;4.00;;
4636;SDS011;2331;48.806;9.140;2024-01-30T02:14:21;6.40;;;4.18;;
4636;SDS011;2331;48.806;9.140;2024-01-30T02:16:47;6.00;;;4.28;;
4636;SDS011;2331;48.806;9.140;2024-01-30T02:19:14;9.32;;;5.18;;
4636;SDS011;2331;48.806;9.140;2024-01-30T02:21:42;11.55;;;5.28;;
4636;SDS011;2331;48.806;9.140;2024-01-30T02:24:11;8.00;;;5.13;;
4636;SDS011;2331;48.806;9.140;2024-01-30T02:26:38;5.53;;;4.20;;
4636;SDS011;2331;48.806;9.140;2024-01-30T02:29:04;8.98;;;4.70;;
4636;SDS011;2331;48.806;9.140;2024-01-30T02:31:31;9.63;;;5.13;;
4636;SDS011;2331;48.806;9.140;2024-01-30T02:33:58;9.38;;;6.13;;
4636;SDS011;2331;48.806;9.140;2024-01-30T02:36:25;9.30;;;5.63;;
4636;SDS011;2331;48.806;9.140;2024-01-30T02:38:53;9.02;;;5.22;;
4636;SDS011;2331;48.806;9.140;2024-01-30T02:41:20;11.45;;;6.20;;
4636;SDS011;2331;48.806;9.140;2024-01-30T02:43:47;11.10;;;5.82;;
4636;SDS011;2331;48.806;9.140;2024-01-30T02:46:13;13.75;;;6.00;;
4636;SDS011;2331;48.806;9.140;2024-01-30T02:48:40;11.93;;;5.68;;
4636;SDS011;2331;48.806;9.140;2024-01-30T02:51:07;9.10;;;5.47;;
4636;SDS011;2331;48.806;9.140;2024-01-30T02:53:33;9.00;;;5.57;;
4636;SDS011;2331;48.806;9.140;2024-01-30T02:56:02;13.18;;;5.40;;
4636;SDS011;2331;48.806;9.140;2024-01-30T02:58:30;7.70;;;4.95;;
4636;SDS011;2331;48.806;9.140;2024-01-30T03:00:57;7.25;;;5.07;;
4636;SDS011;2331;48.806;9.140;2024-01-30T03:03:24;8.95;;;5.47;;
4636;SDS011;2331;48.806;9.140;2024-01-30T03:05:50;8.77;;;5.13;;
4636;SDS011;2331;48.806;9.140;2024-01-30T03:08:17;9.00;;;5.85;;
4636;SDS011;2331;48.806;9.140;2024-01-30T03:10:44;7.75;;;4.80;;
4636;SDS011;2331;48.806;9.140;2024-01-30T03:13:12;8.60;;;5.30;;
4636;SDS011;2331;48.806;9.140;2024-01-30T03:15:39;7.90;;;4.18;;
4636;SDS011;2331;48.806;9.140;2024-01-30T03:18:05;8.18;;;4.75;;
4636;SDS011;2331;48.806;9.140;2024-01-30T03:20:32;7.95;;;4.70;;
4636;SDS011;2331;48.806;9.140;2024-01-30T03:22:59;6.82;;;4.80;;
4636;SDS011;2331;48.806;9.140;2024-01-30T03:25:26;6.13;;;4.35;;
4636;SDS011;2331;48.806;9.140;2024-01-30T03:27:53;9.52;;;4.47;;
4636;SDS011;2331;48.806;9.140;2024-01-30T03:30:21;6.10;;;3.90;;
4636;SDS011;2331;48.806;9.140;2024-01-30T03:32:47;7.13;;;4.15;;
4636;SDS011;2331;48.806;9.140;2024-01-30T03:35:15;8.18;;;4.30;;
4636;SDS011;2331;48.806;9.140;2024-01-30T03:37:42;6.30;;;4.22;;
4636;SDS011;2331;48.806;9.140;2024-01-30T03:40:09;9.25;;;5.15;;
4636;SDS011;2331;48.806;9.140;2024-01-30T03:42:36;9.65;;;5.20;;
4636;SDS011;2331;48.806;9.140;2024-01-30T03:45:03;7.55;;;4.80;;
4636;SDS011;2331;48.806;9.140;2024-01-30T03:47:32;7.53;;;5.05;;
4636;SDS011;2331;48.806;9.140;2024-01-30T03:49:59;6.60;;;4.55;;
4636;SDS011;2331;48.806;9.140;2024-01-30T03:52:25;8.82;;;4.80;;
4636;SDS011;2331;48.806;9.140;2024-01-30T03:54:52;8.80;;;4.82;;
4636;SDS011;2331;48.806;9.140;2024-01-30T03:57:19;7.97;;;4.78;;
4636;SDS011;2331;48.806;9.140;2024-01-30T03:59:46;7.80;;;4.38;;
4636;SDS011;2331;48.806;9.140;2024-01-30T04:02:13;5.20;;;3.85;;
4636;SDS011;2331;48.806;9.140;2024-01-30T04:04:41;7.38;;;4.28;;
4636;SDS011;2331;48.806;9.140;2024-01-30T04:07:07;7.78;;;4.10;;
4636;SDS011;2331;48.806;9.140;2024-01-30T04:09:34;8.13;;;4.32;;
4636;SDS011;2331;48.806;9.140;2024-01-30T04:12:01;7.80;;;4.18;;
4636;SDS011;2331;48.806;9.140;2024-01-30T04:14:28;5.95;;;3.83;;
4636;SDS011;2331;48.806;9.140;2024-01-30T04:16:55;6.25;;;4.05;;
4636;SDS011;2331;48.806;9.140;2024-01-30T04:19:22;5.50;;;3.70;;
4636;SDS011;2331;48.806;9.140;2024-01-30T04:21:50;5.85;;;4.10;;
4636;SDS011;2331;48.806;9.140;2024-01-30T04:24:17;8.23;;;4.70;;
4636;SDS011;2331;48.806;9.140;2024-01-30T04:26:44;5.18;;;4.03;;
4636;SDS011;2331;48.806;9.140;2024-01-30T04:29:11;5.18;;;3.60;;
4636;SDS011;2331;48.806;9.140;2024-01-30T04:31:37;6.15;;;3.70;;
4636;SDS011;2331;48.806;9.140;2024-01-30T04:34:04;6.00;;;4.18;;
4636;SDS011;2331;48.806;9.140;2024-01-30T04:36:31;6.18;;;4.30;;
4636;SDS011;2331;48.806;9.140;2024-01-30T04:38:59;5.35;;;4.03;;
4636;SDS011;2331;48.806;9.140;2024-01-30T04:41:26;5.75;;;3.83;;
4636;SDS011;2331;48.806;9.140;2024-01-30T04:43:56;6.47;;;4.18;;
4636;SDS011;2331;48.806;9.140;2024-01-30T04:46:23;5.35;;;4.10;;
4636;SDS011;2331;48.806;9.140;2024-01-30T04:48:49;6.60;;;3.70;;
4636;SDS011;2331;48.806;9.140;2024-01-30T04:51:16;8.07;;;4.55;;
4636;SDS011;2331;48.806;9.140;2024-01-30T04:53:43;8.55;;;3.78;;
4636;SDS011;2331;48.806;9.140;2024-01-30T04:56:11;8.75;;;4.30;;
4636;SDS011;2331;48.806;9.140;2024-01-30T04:58:37;5.90;;;3.70;;
4636;SDS011;2331;48.806;9.140;2024-01-30T05:01:04;10.43;;;3.83;;
4636;SDS011;2331;48.806;9.140;2024-01-30T05:03:32;8.77;;;4.10;;
4636;SDS011;2331;48.806;9.140;2024-01-30T05:06:00;8.55;;;4.38;;
4636;SDS011;2331;48.806;9.140;2024-01-30T05:08:26;9.23;;;4.20;;
4636;SDS011;2331;48.806;9.140;2024-01-30T05:10:53;6.05;;;4.55;;
4636;SDS011;2331;48.806;9.140;2024-01-30T05:13:21;5.90;;;3.88;;
4636;SDS011;2331;48.806;9.140;2024-01-30T05:15:48;11.65;;;4.45;;
4636;SDS011;2331;48.806;9.140;2024-01-30T05:18:15;6.82;;;4.68;;
4636;SDS011;2331;48.806;9.140;2024-01-30T05:20:41;10.07;;;4.75;;
4636;SDS011;2331;48.806;9.140;2024-01-30T05:23:08;9.95;;;4.68;;
4636;SDS011;2331;48.806;9.140;2024-01-30T05:25:35;6.35;;;3.78;;
4636;SDS011;2331;48.806;9.140;2024-01-30T05:28:01;6.28;;;3.83;;
4636;SDS011;2331;48.806;9.140;2024-01-30T05:30:30;5.57;;;4.10;;
4636;SDS011;2331;48.806;9.140;2024-01-30T05:32:57;3.80;;;3.10;;
4636;SDS011;2331;48.806;9.140;2024-01-30T05:35:23;7.40;;;4.22;;
4636;SDS011;2331;48.806;9.140;2024-01-30T05:37:50;8.45;;;4.05;;
4636;SDS011;2331;48.806;9.140;2024-01-30T05:40:17;9.10;;;4.07;;
4636;SDS011;2331;48.806;9.140;2024-01-30T05:42:44;5.80;;;4.10;;
4636;SDS011;2331;48.806;9.140;2024-01-30T05:45:11;7.05;;;4.40;;
4636;SDS011;2331;48.806;9.140;2024-01-30T05:47:39;7.10;;;4.28;;
4636;SDS011;2331;48.806;9.140;2024-01-30T05:50:06;6.88;;;3.83;;
4636;SDS011;2331;48.806;9.140;2024-01-30T05:52:33;6.47;;;3.95;;
4636;SDS011;2331;48.806;9.140;2024-01-30T05:55:00;6.95;;;3.72;;
4636;SDS011;2331;48.806;9.140;2024-01-30T05:57:27;5.03;;;3.30;;
4636;SDS011;2331;48.806;9.140;2024-01-30T05:59:54;6.15;;;4.25;;
4636;SDS011;2331;48.806;9.140;2024-01-30T06:02:20;4.43;;;3.47;;
4636;SDS011;2331;48.806;9.140;2024-01-30T06:04:48;7.55;;;4.00;;
4636;SDS011;2331;48.806;9.140;2024-01-30T06:07:15;5.75;;;3.70;;
4636;SDS011;2331;48.806;9.140;2024-01-30T06:09:42;6.10;;;3.90;;
4636;SDS011;2331;48.806;9.140;2024-01-30T06:12:09;8.20;;;4.47;;
4636;SDS011;2331;48.806;9.140;2024-01-30T06:14:36;7.70;;;5.10;;
4636;SDS011;2331;48.806;9.140;2024-01-30T06:17:03;7.53;;;4.95;;
4636;SDS011;2331;48.806;9.140;2024-01-30T06:19:30;8.77;;;5.18;;
4636;SDS011;2331;48.806;9.140;2024-01-30T06:21:59;6.15;;;4.50;;
4636;SDS011;2331;48.806;9.140;2024-01-30T06:24:26;6.75;;;4.20;;
4636;SDS011;2331;48.806;9.140;2024-01-30T06:26:52;8.68;;;4.75;;
4636;SDS011;2331;48.806;9.140;2024-01-30T06:29:19;7.80;;;4.70;;
4636;SDS011;2331;48.806;9.140;2024-01-30T06:31:46;6.93;;;4.43;;
4636;SDS011;2331;48.806;9.140;2024-01-30T06:34:13;8.23;;;4.30;;
4636;SDS011;2331;48.806;9.140;2024-01-30T06:36:40;7.88;;;4.38;;
4636;SDS011;2331;48.806;9.140;2024-01-30T06:39:08;7.65;;;4.78;;
4636;SDS011;2331;48.806;9.140;2024-01-30T06:41:35;8.73;;;4.70;;
4636;SDS011;2331;48.806;9.140;2024-01-30T06:44:02;6.93;;;4.40;;
4636;SDS011;2331;48.806;9.140;2024-01-30T06:46:31;8.75;;;4.80;;
4636;SDS011;2331;48.806;9.140;2024-01-30T06:48:58;7.82;;;4.75;;
4636;SDS011;2331;48.806;9.140;2024-01-30T06:51:24;6.18;;;4.45;;
4636;SDS011;2331;48.806;9.140;2024-01-30T06:53:51;5.65;;;4.03;;
4636;SDS011;2331;48.806;9.140;2024-01-30T06:56:19;5.88;;;4.22;;
4636;SDS011;2331;48.806;9.140;2024-01-30T06:58:46;6.85;;;4.20;;
4636;SDS011;2331;48.806;9.140;2024-01-30T07:01:13;6.55;;;4.32;;
4636;SDS011;2331;48.806;9.140;2024-01-30T07:03:40;7.85;;;4.60;;
4636;SDS011;2331;48.806;9.140;2024-01-30T07:06:07;5.75;;;3.90;;
4636;SDS011;2331;48.806;9.140;2024-01-30T07:08:34;6.00;;;3.97;;
4636;SDS011;2331;48.806;9.140;2024-01-30T07:11:01;6.90;;;4.30;;
4636;SDS011;2331;48.806;9.140;2024-01-30T07:13:29;5.43;;;4.05;;
4636;SDS011;2331;48.806;9.140;2024-01-30T07:15:55;4.97;;;3.65;;
4636;SDS011;2331;48.806;9.140;2024-01-30T07:18:22;4.07;;;3.22;;
4636;SDS011;2331;48.806;9.140;2024-01-30T07:20:49;4.00;;;2.80;;
4636;SDS011;2331;48.806;9.140;2024-01-30T07:23:16;4.88;;;3.50;;
4636;SDS011;2331;48.806;9.140;2024-01-30T07:25:43;4.28;;;3.13;;
4636;SDS011;2331;48.806;9.140;2024-01-30T07:28:10;5.35;;;3.80;;
4636;SDS011;2331;48.806;9.140;2024-01-30T07:30:40;7.00;;;4.20;;
4636;SDS011;2331;48.806;9.140;2024-01-30T07:33:07;9.77;;;4.75;;
4636;SDS011;2331;48.806;9.140;2024-01-30T07:35:34;5.90;;;3.90;;
4636;SDS011;2331;48.806;9.140;2024-01-30T07:38:01;7.45;;;4.43;;
4636;SDS011;2331;48.806;9.140;2024-01-30T07:40:28;6.05;;;4.10;;
4636;SDS011;2331;48.806;9.140;2024-01-30T07:42:55;6.65;;;4.07;;
4636;SDS011;2331;48.806;9.140;2024-01-30T07:45:21;6.18;;;4.30;;
4636;SDS011;2331;48.806;9.140;2024-01-30T07:47:51;5.93;;;4.22;;
4636;SDS011;2331;48.806;9.140;2024-01-30T07:50:17;8.02;;;4.80;;
4636;SDS011;2331;48.806;9.140;2024-01-30T07:52:44;7.70;;;4.72;;
4636;SDS011;2331;48.806;9.140;2024-01-30T07:55:13;7.72;;;5.22;;
4636;SDS011;2331;48.806;9.140;2024-01-30T07:57:40;6.35;;;4.20;;
4636;SDS011;2331;48.806;9.140;2024-01-30T08:00:08;6.80;;;4.85;;
4636;SDS011;2331;48.806;9.140;2024-01-30T08:02:35;7.72;;;5.18;;
4636;SDS011;2331;48.806;9.140;2024-01-30T08:05:04;8.95;;;5.80;;
4636;SDS011;2331;48.806;9.140;2024-01-30T08:07:31;9.45;;;5.70;;
4636;SDS011;2331;48.806;9.140;2024-01-30T08:09:58;8.60;;;5.35;;
4636;SDS011;2331;48.806;9.140;2024-01-30T08:12:24;9.23;;;5.72;;
4636;SDS011;2331;48.806;9.140;2024-01-30T08:14:51;9.48;;;5.30;;
4636;SDS011;2331;48.806;9.140;2024-01-30T08:17:18;11.55;;;6.55;;
4636;SDS011;2331;48.806;9.140;2024-01-30T08:19:44;9.52;;;5.82;;
4636;SDS011;2331;48.806;9.140;2024-01-30T08:22:13;11.70;;;6.63;;
4636;SDS011;2331;48.806;9.140;2024-01-30T08:24:40;11.73;;;5.93;;
4636;SDS011;2331;48.806;9.140;2024-01-30T08:27:07;9.23;;;6.70;;
4636;SDS011;2331;48.806;9.140;2024-01-30T08:29:35;12.05;;;6.75;;
4636;SDS011;2331;48.806;9.140;2024-01-30T08:32:02;9.80;;;6.32;;
4636;SDS011;2331;48.806;9.140;2024-01-30T08:34:29;11.02;;;6.70;;
4636;SDS011;2331;48.806;9.140;2024-01-30T08:36:55;10.25;;;6.40;;
4636;SDS011;2331;48.806;9.140;2024-01-30T08:39:23;10.93;;;6.57;;
4636;SDS011;2331;48.806;9.140;2024-01-30T08:41:50;13.55;;;7.45;;
4636;SDS011;2331;48.806;9.140;2024-01-30T08:44:17;14.80;;;7.13;;
4636;SDS011;2331;48.806;9.140;2024-01-30T08:46:44;17.17;;;7.47;;
4636;SDS011;2331;48.806;9.140;2024-01-30T08:49:11;12.65;;;6.95;;
4636;SDS011;2331;48.806;9.140;2024-01-30T08:51:38;9.38;;;6.28;;
4636;SDS011;2331;48.806;9.140;2024-01-30T08:54:05;8.90;;;6.35;;
4636;SDS011;2331;48.806;9.140;2024-01-30T08:56:33;12.43;;;7.50;;
4636;SDS011;2331;48.806;9.140;2024-01-30T08:59:00;10.60;;;6.68;;
4636;SDS011;2331;48.806;9.140;2024-01-30T09:01:27;9.40;;;7.55;;
4636;SDS011;2331;48.806;9.140;2024-01-30T09:03:53;12.65;;;7.70;;
4636;SDS011;2331;48.806;9.140;2024-01-30T09:06:20;10.32;;;8.07;;
4636;SDS011;2331;48.806;9.140;2024-01-30T09:08:47;12.73;;;7.88;;
4636;SDS011;2331;48.806;9.140;2024-01-30T09:11:14;15.23;;;7.97;;
4636;SDS011;2331;48.806;9.140;2024-01-30T09:13:44;13.18;;;8.10;;
4636;SDS011;2331;48.806;9.140;2024-01-30T09:16:10;13.30;;;8.32;;
4636;SDS011;2331;48.806;9.140;2024-01-30T09:18:37;16.20;;;8.85;;
4636;SDS011;2331;48.806;9.140;2024-01-30T09:21:04;13.18;;;8.68;;
4636;SDS011;2331;48.806;9.140;2024-01-30T09:23:31;19.05;;;9.93;;
4636;SDS011;2331;48.806;9.140;2024-01-30T09:25:58;12.60;;;8.32;;
4636;SDS011;2331;48.806;9.140;2024-01-30T09:28:25;13.10;;;8.95;;
4636;SDS011;2331;48.806;9.140;2024-01-30T09:30:53;14.18;;;8.23;;
4636;SDS011;2331;48.806;9.140;2024-01-30T09:33:20;14.05;;;8.60;;
4636;SDS011;2331;48.806;9.140;2024-01-30T09:35:46;14.95;;;8.63;;
4636;SDS011;2331;48.806;9.140;2024-01-30T09:38:13;12.18;;;8.48;;
4636;SDS011;2331;48.806;9.140;2024-01-30T09:40:40;15.25;;;9.85;;
4636;SDS011;2331;48.806;9.140;2024-01-30T09:43:07;19.80;;;9.55;;
4636;SDS011;2331;48.806;9.140;2024-01-30T09:45:36;14.27;;;9.15;;
4636;SDS011;2331;48.806;9.140;2024-01-30T09:48:06;20.63;;;10.05;;
4636;SDS011;2331;48.806;9.140;2024-01-30T09:50:33;12.93;;;8.60;;
4636;SDS011;2331;48.806;9.140;2024-01-30T09:53:02;13.90;;;9.52;;
4636;SDS011;2331;48.806;9.140;2024-01-30T09:55:31;19.33;;;10.60;;
4636;SDS011;2331;48.806;9.140;2024-01-30T09:57:58;15.82;;;8.63;;
4636;SDS011;2331;48.806;9.140;2024-01-30T10:00:25;17.70;;;9.60;;
4636;SDS011;2331;48.806;9.140;2024-01-30T10:02:52;16.30;;;9.60;;
4636;SDS011;2331;48.806;9.140;2024-01-30T10:05:20;15.40;;;9.15;;
4636;SDS011;2331;48.806;9.140;2024-01-30T10:07:53;17.90;;;8.95;;
4636;SDS011;2331;48.806;9.140;2024-01-30T10:10:21;15.55;;;9.55;;
4636;SDS011;2331;48.806;9.140;2024-01-30T10:12:48;13.95;;;8.77;;
4636;SDS011;2331;48.806;9.140;2024-01-30T10:15:15;11.82;;;8.45;;
4636;SDS011;2331;48.806;9.140;2024-01-30T10:17:43;13.65;;;8.95;;
4636;SDS011;2331;48.806;9.140;2024-01-30T10:20:10;13.95;;;9.07;;
4636;SDS011;2331;48.806;9.140;2024-01-30T10:22:39;15.15;;;8.30;;
4636;SDS011;2331;48.806;9.140;2024-01-30T10:25:07;14.25;;;8.75;;
4636;SDS011;2331;48.806;9.140;2024-01-30T10:27:35;15.32;;;9.00;;
4636;SDS011;2331;48.806;9.140;2024-01-30T10:30:02;14.30;;;8.75;;
4636;SDS011;2331;48.806;9.140;2024-01-30T10:32:30;19.77;;;9.57;;
4636;SDS011;2331;48.806;9.140;2024-01-30T10:34:56;18.30;;;10.38;;
4636;SDS011;2331;48.806;9.140;2024-01-30T10:37:24;13.43;;;8.63;;
4636;SDS011;2331;48.806;9.140;2024-01-30T10:39:53;14.13;;;9.00;;
4636;SDS011;2331;48.806;9.140;2024-01-30T10:42:23;15.00;;;8.45;;
4636;SDS011;2331;48.806;9.140;2024-01-30T10:44:56;15.38;;;9.63;;
4636;SDS011;2331;48.806;9.140;2024-01-30T10:47:26;12.82;;;8.95;;
4636;SDS011;2331;48.806;9.140;2024-01-30T10:49:53;14.25;;;8.50;;
4636;SDS011;2331;48.806;9.140;2024-01-30T10:52:22;15.52;;;9.18;;
4636;SDS011;2331;48.806;9.140;2024-01-30T10:54:51;17.58;;;10.10;;
4636;SDS011;2331;48.806;9.140;2024-01-30T10:57:21;18.70;;;10.10;;
4636;SDS011;2331;48.806;9.140;2024-01-30T10:59:50;15.50;;;8.43;;
4636;SDS011;2331;48.806;9.140;2024-01-30T11:02:21;17.80;;;9.25;;
4636;SDS011;2331;48.806;9.140;2024-01-30T11:04:49;19.00;;;10.18;;
4636;SDS011;2331;48.806;9.140;2024-01-30T11:07:23;15.98;;;9.18;;
4636;SDS011;2331;48.806;9.140;2024-01-30T11:10:01;18.40;;;9.60;;
4636;SDS011;2331;48.806;9.140;2024-01-30T11:12:30;19.98;;;9.23;;
4636;SDS011;2331;48.806;9.140;2024-01-30T11:15:02;24.65;;;9.88;;
4636;SDS011;2331;48.806;9.140;2024-01-30T11:17:39;14.88;;;8.70;;
4636;SDS011;2331;48.806;9.140;2024-01-30T11:20:09;16.48;;;9.15;;
4636;SDS011;2331;48.806;9.140;2024-01-30T11:22:36;16.67;;;9.75;;
4636;SDS011;2331;48.806;9.140;2024-01-30T11:25:05;17.33;;;9.45;;
4636;SDS011;2331;48.806;9.140;2024-01-30T11:27:32;16.83;;;9.57;;
4636;SDS011;2331;48.806;9.140;2024-01-30T11:30:01;14.10;;;9.70;;
4636;SDS011;2331;48.806;9.140;2024-01-30T11:32:28;16.80;;;8.20;;
4636;SDS011;2331;48.806;9.140;2024-01-30T11:34:55;19.30;;;10.00;;
4636;SDS011;2331;48.806;9.140;2024-01-30T11:37:21;13.82;;;8.15;;
4636;SDS011;2331;48.806;9.140;2024-01-30T11:39:52;24.48;;;10.00;;
4636;SDS011;2331;48.806;9.140;2024-01-30T11:42:22;18.95;;;9.38;;
4636;SDS011;2331;48.806;9.140;2024-01-30T11:44:50;16.58;;;9.15;;
4636;SDS011;2331;48.806;9.140;2024-01-30T11:47:17;16.80;;;9.73;;
4636;SDS011;2331;48.806;9.140;2024-01-30T11:49:44;18.90;;;9.93;;
4636;SDS011;2331;48.806;9.140;2024-01-30T11:52:11;19.38;;;9.70;;
4636;SDS011;2331;48.806;9.140;2024-01-30T11:54:39;17.83;;;10.02;;
4636;SDS011;2331;48.806;9.140;2024-01-30T11:57:06;16.40;;;8.68;;
4636;SDS011;2331;48.806;9.140;2024-01-30T11:59:34;18.38;;;9.00;;
4636;SDS011;2331;48.806;9.140;2024-01-30T12:02:01;18.40;;;10.02;;
4636;SDS011;2331;48.806;9.140;2024-01-30T12:04:30;17.10;;;9.15;;
4636;SDS011;2331;48.806;9.140;2024-01-30T12:06:57;18.55;;;9.25;;
4636;SDS011;2331;48.806;9.140;2024-01-30T12:09:24;15.82;;;9.15;;
4636;SDS011;2331;48.806;9.140;2024-01-30T12:11:52;14.70;;;8.98;;
4636;SDS011;2331;48.806;9.140;2024-01-30T12:14:19;18.55;;;8.68;;
4636;SDS011;2331;48.806;9.140;2024-01-30T12:16:51;21.25;;;9.07;;
4636;SDS011;2331;48.806;9.140;2024-01-30T12:19:21;15.07;;;9.70;;
4636;SDS011;2331;48.806;9.140;2024-01-30T12:21:53;16.98;;;8.65;;
4636;SDS011;2331;48.806;9.140;2024-01-30T12:24:21;18.58;;;9.07;;
4636;SDS011;2331;48.806;9.140;2024-01-30T12:26:48;18.40;;;9.23;;
4636;SDS011;2331;48.806;9.140;2024-01-30T12:29:15;15.30;;;9.60;;
4636;SDS011;2331;48.806;9.140;2024-01-30T12:31:41;16.70;;;8.90;;
4636;SDS011;2331;48.806;9.140;2024-01-30T12:34:13;18.13;;;9.27;;
4636;SDS011;2331;48.806;9.140;2024-01-30T12:36:40;16.45;;;9.70;;
4636;SDS011;2331;48.806;9.140;2024-01-30T12:39:10;20.42;;;9.80;;
4636;SDS011;2331;48.806;9.140;2024-01-30T12:41:37;16.13;;;9.00;;
4636;SDS011;2331;48.806;9.140;2024-01-30T12:44:04;15.40;;;8.30;;
4636;SDS011;2331;48.806;9.140;2024-01-30T12:46:31;17.25;;;10.02;;
4636;SDS011;2331;48.806;9.140;2024-01-30T12:48:59;19.92;;;10.05;;
4636;SDS011;2331;48.806;9.140;2024-01-30T12:51:28;18.55;;;9.93;;
4636;SDS011;2331;48.806;9.140;2024-01-30T12:53:55;15.00;;;9.13;;
4636;SDS011;2331;48.806;9.140;2024-01-30T12:56:22;17.02;;;9.65;;
4636;SDS011;2331;48.806;9.140;2024-01-30T12:58:48;16.17;;;9.68;;
4636;SDS011;2331;48.806;9.140;2024-01-30T13:01:15;14.45;;;9.10;;
4636;SDS011;2331;48.806;9.140;2024-01-30T13:03:42;15.13;;;9.20;;
4636;SDS011;2331;48.806;9.140;2024-01-30T13:06:09;13.73;;;9.23;;
4636;SDS011;2331;48.806;9.140;2024-01-30T13:08:37;13.65;;;8.60;;
4636;SDS011;2331;48.806;9.140;2024-01-30T13:11:03;14.95;;;9.50;;
4636;SDS011;2331;48.806;9.140;2024-01-30T13:13:30;14.95;;;8.90;;
4636;SDS011;2331;48.806;9.140;2024-01-30T13:15:57;19.00;;;9.50;;
4636;SDS011;2331;48.806;9.140;2024-01-30T13:18:24;17.40;;;9.00;;
4636;SDS011;2331;48.806;9.140;2024-01-30T13:20:51;16.88;;;9.50;;
4636;SDS011;2331;48.806;9.140;2024-01-30T13:23:17;16.98;;;9.88;;
4636;SDS011;2331;48.806;9.140;2024-01-30T13:25:45;19.15;;;9.30;;
4636;SDS011;2331;48.806;9.140;2024-01-30T13:28:12;17.35;;;9.68;;
4636;SDS011;2331;48.806;9.140;2024-01-30T13:30:39;16.90;;;9.25;;
4636;SDS011;2331;48.806;9.140;2024-01-30T13:33:06;15.02;;;8.95;;
4636;SDS011;2331;48.806;9.140;2024-01-30T13:35:32;21.38;;;9.60;;
4636;SDS011;2331;48.806;9.140;2024-01-30T13:38:01;21.08;;;9.43;;
4636;SDS011;2331;48.806;9.140;2024-01-30T13:40:28;22.90;;;9.93;;
4636;SDS011;2331;48.806;9.140;2024-01-30T13:42:56;16.42;;;10.40;;
4636;SDS011;2331;48.806;9.140;2024-01-30T13:45:23;20.95;;;10.27;;
4636;SDS011;2331;48.806;9.140;2024-01-30T13:47:49;19.83;;;10.30;;
4636;SDS011;2331;48.806;9.140;2024-01-30T13:50:16;18.60;;;9.40;;
4636;SDS011;2331;48.806;9.140;2024-01-30T13:52:42;19.63;;;10.47;;
4636;SDS011;2331;48.806;9.140;2024-01-30T13:55:09;21.40;;;10.32;;
4636;SDS011;2331;48.806;9.140;2024-01-30T13:57:36;23.67;;;10.13;;
4636;SDS011;2331;48.806;9.140;2024-01-30T14:00:05;19.35;;;9.50;;
4636;SDS011;2331;48.806;9.140;2024-01-30T14:02:32;22.80;;;10.48;;
4636;SDS011;2331;48.806;9.140;2024-01-30T14:04:59;14.93;;;9.13;;
4636;SDS011;2331;48.806;9.140;2024-01-30T14:07:26;15.10;;;8.93;;
4636;SDS011;2331;48.806;9.140;2024-01-30T14:09:53;19.05;;;9.30;;
4636;SDS011;2331;48.806;9.140;2024-01-30T14:12:19;17.17;;;10.18;;
4636;SDS011;2331;48.806;9.140;2024-01-30T14:14:46;20.35;;;9.88;;
4636;SDS011;2331;48.806;9.140;2024-01-30T14:17:14;21.15;;;8.98;;
4636;SDS011;2331;48.806;9.140;2024-01-30T14:19:42;20.90;;;10.07;;
4636;SDS011;2331;48.806;9.140;2024-01-30T14:22:08;17.30;;;9.70;;
4636;SDS011;2331;48.806;9.140;2024-01-30T14:24:35;23.45;;;9.45;;
4636;SDS011;2331;48.806;9.140;2024-01-30T14:27:03;19.63;;;10.45;;
4636;SDS011;2331;48.806;9.140;2024-01-30T14:29:30;16.33;;;8.95;;
4636;SDS011;2331;48.806;9.140;2024-01-30T14:31:57;17.13;;;9.40;;
4636;SDS011;2331;48.806;9.140;2024-01-30T14:34:25;26.40;;;9.85;;
4636;SDS011;2331;48.806;9.140;2024-01-30T14:36:52;20.77;;;10.48;;
4636;SDS011;2331;48.806;9.140;2024-01-30T14:39:19;22.40;;;9.27;;
4636;SDS011;2331;48.806;9.140;2024-01-30T14:41:45;22.67;;;10.00;;
4636;SDS011;2331;48.806;9.140;2024-01-30T14:44:12;17.83;;;9.70;;
4636;SDS011;2331;48.806;9.140;2024-01-30T14:46:39;22.85;;;10.55;;
4636;SDS011;2331;48.806;9.140;2024-01-30T14:49:07;23.35;;;10.38;;
4636;SDS011;2331;48.806;9.140;2024-01-30T14:51:36;20.45;;;10.30;;
4636;SDS011;2331;48.806;9.140;2024-01-30T14:54:03;17.73;;;10.50;;
4636;SDS011;2331;48.806;9.140;2024-01-30T14:56:29;24.13;;;10.55;;
4636;SDS011;2331;48.806;9.140;2024-01-30T14:58:57;21.25;;;10.10;;
4636;SDS011;2331;48.806;9.140;2024-01-30T15:01:24;19.35;;;9.38;;
4636;SDS011;2331;48.806;9.140;2024-01-30T15:03:51;19.05;;;10.48;;
4636;SDS011;2331;48.806;9.140;2024-01-30T15:06:18;18.35;;;9.40;;
4636;SDS011;2331;48.806;9.140;2024-01-30T15:08:47;15.25;;;8.73;;